createdAt,value
2019-03-12T00:01:24.751Z,97049.84
2019-03-12T00:03:55.171Z,97052.86
2019-03-12T00:06:26.063Z,97049.94
2019-03-12T00:08:56.436Z,97044.16
2019-03-12T00:11:26.870Z,97049.59
2019-03-12T00:13:57.309Z,97055.45
2019-03-12T00:16:27.733Z,97051.42
2019-03-12T00:18:58.179Z,97061.47
2019-03-12T00:21:28.636Z,97073.39
2019-03-12T00:23:58.934Z,97072.44
2019-03-12T00:26:29.416Z,97088.02
2019-03-12T00:28:59.699Z,97090.50
2019-03-12T00:31:30.151Z,97096.83
2019-03-12T00:34:00.577Z,97102.38
2019-03-12T00:36:30.998Z,97110.81
2019-03-12T00:39:01.449Z,97108.12
2019-03-12T00:41:31.817Z,97112.45
2019-03-12T00:44:04.026Z,97117.70
2019-03-12T00:46:34.312Z,97106.78
2019-03-12T00:49:04.748Z,97119.14
2019-03-12T00:51:35.051Z,97116.02
2019-03-12T00:54:05.480Z,97126.20
2019-03-12T00:56:35.905Z,97119.23
2019-03-12T00:59:06.347Z,97124.85
2019-03-12T01:01:37.917Z,97133.74
2019-03-12T01:04:08.397Z,97137.23
2019-03-12T01:06:38.826Z,97136.80
2019-03-12T01:09:10.127Z,97142.48
2019-03-12T01:11:40.680Z,97145.96
2019-03-12T01:14:11.195Z,97146.97
2019-03-12T01:16:41.739Z,97146.38
2019-03-12T01:19:12.270Z,97152.89
2019-03-12T01:21:42.785Z,97152.37
2019-03-12T01:24:13.351Z,97156.07
2019-03-12T01:26:43.863Z,97156.64
2019-03-12T01:29:14.384Z,97161.31
2019-03-12T01:31:44.927Z,97161.61
2019-03-12T01:34:15.490Z,97173.03
2019-03-12T01:36:46.018Z,97165.80
2019-03-12T01:39:16.511Z,97171.66
2019-03-12T01:41:47.040Z,97174.80
2019-03-12T01:44:17.540Z,97176.99
2019-03-12T01:46:48.036Z,97181.59
2019-03-12T01:49:18.554Z,97176.98
2019-03-12T01:51:49.051Z,97179.52
2019-03-12T01:54:19.580Z,97186.14
2019-03-12T01:56:50.089Z,97185.14
2019-03-12T01:59:20.756Z,97186.19
2019-03-12T02:01:51.246Z,97186.28
2019-03-12T02:04:21.782Z,97184.19
2019-03-12T02:06:52.323Z,97183.64
2019-03-12T02:09:23.053Z,97190.96
2019-03-12T02:11:53.569Z,97189.98
2019-03-12T02:14:29.391Z,97191.86
2019-03-12T02:16:59.907Z,97195.15
2019-03-12T02:19:30.407Z,97192.52
2019-03-12T02:22:00.945Z,97202.30
2019-03-12T02:24:31.493Z,97209.46
2019-03-12T02:27:04.253Z,97208.87
2019-03-12T02:29:34.766Z,97214.31
2019-03-12T02:32:06.940Z,97229.54
2019-03-12T02:34:37.466Z,97229.38
2019-03-12T02:37:08.256Z,97228.66
2019-03-12T02:39:38.768Z,97229.09
2019-03-12T02:42:12.459Z,97240.98
2019-03-12T02:44:41.553Z,97239.61
2019-03-12T02:47:12.057Z,97247.91
2019-03-12T02:49:42.587Z,97253.53
2019-03-12T02:52:13.118Z,97251.64
2019-03-12T02:54:43.641Z,97250.08
2019-03-12T02:57:14.165Z,97261.87
2019-03-12T02:59:44.710Z,97265.84
2019-03-12T03:02:15.230Z,97265.93
2019-03-12T03:04:45.758Z,97269.20
2019-03-12T03:07:34.048Z,97266.01
2019-03-12T03:10:05.469Z,97270.77
2019-03-12T03:12:35.975Z,97275.34
2019-03-12T03:15:22.062Z,97275.41
2019-03-12T03:17:52.561Z,97282.89
2019-03-12T03:20:23.130Z,97290.63
2019-03-12T03:22:53.679Z,97296.66
2019-03-12T03:25:24.179Z,97297.77
2019-03-12T03:27:54.855Z,97296.11
2019-03-12T03:30:25.686Z,97299.85
2019-03-12T03:32:56.725Z,97300.36
2019-03-12T03:35:27.266Z,97303.95
2019-03-12T03:37:57.838Z,97306.84
2019-03-12T03:40:28.376Z,97312.84
2019-03-12T03:42:58.937Z,97317.33
2019-03-12T03:45:30.650Z,97315.78
2019-03-12T03:48:01.147Z,97323.03
2019-03-12T03:50:31.671Z,97321.11
2019-03-12T03:53:02.181Z,97322.41
2019-03-12T03:55:32.783Z,97319.92
2019-03-12T03:58:03.313Z,97326.30
2019-03-12T04:00:33.835Z,97327.17
2019-03-12T04:03:04.409Z,97337.91
2019-03-12T04:05:36.014Z,97343.36
2019-03-12T04:08:06.560Z,97344.34
2019-03-12T04:10:37.062Z,97350.36
2019-03-12T04:13:07.618Z,97360.52
2019-03-12T04:15:38.124Z,97363.53
2019-03-12T04:18:08.631Z,97356.34
2019-03-12T04:20:39.142Z,97355.48
2019-03-12T04:23:09.659Z,97352.72
2019-03-12T04:25:40.194Z,97356.50
2019-03-12T04:28:10.717Z,97356.34
2019-03-12T04:30:41.253Z,97358.86
2019-03-12T04:34:17.020Z,97358.12
2019-03-12T04:36:49.696Z,97347.55
2019-03-12T04:39:20.205Z,97352.67
2019-03-12T04:41:50.713Z,97359.80
2019-03-12T04:44:21.262Z,97355.90
2019-03-12T04:46:51.802Z,97352.41
2019-03-12T04:49:22.454Z,97359.38
2019-03-12T04:51:52.991Z,97363.08
2019-03-12T04:54:23.505Z,97363.48
2019-03-12T04:56:54.020Z,97362.69
2019-03-12T04:59:24.522Z,97363.20
2019-03-12T05:01:55.060Z,97362.38
2019-03-12T05:04:25.602Z,97365.44
2019-03-12T05:06:56.207Z,97372.84
2019-03-12T05:09:26.802Z,97374.22
2019-03-12T05:11:57.304Z,97371.27
2019-03-12T05:14:33.353Z,97375.64
2019-03-12T05:17:35.996Z,97369.81
2019-03-12T05:20:09.678Z,97377.72
2019-03-12T05:22:40.173Z,97382.45
2019-03-12T05:25:11.964Z,97382.59
2019-03-12T05:27:42.474Z,97378.11
2019-03-12T05:30:15.895Z,97376.81
2019-03-12T05:32:46.396Z,97378.73
2019-03-12T05:35:17.194Z,97386.41
2019-03-12T05:37:47.749Z,97389.33
2019-03-12T05:40:18.436Z,97391.10
2019-03-12T05:42:48.947Z,97396.21
2019-03-12T05:45:19.481Z,97390.10
2019-03-12T05:47:51.652Z,97396.83
2019-03-12T05:50:22.245Z,97399.84
2019-03-12T05:52:54.325Z,97396.44
2019-03-12T05:55:24.836Z,97401.19
2019-03-12T05:57:55.365Z,97409.75
2019-03-12T06:00:27.574Z,97409.47
2019-03-12T06:02:58.108Z,97414.78
2019-03-12T06:05:28.615Z,97415.81
2019-03-12T06:07:59.110Z,97416.79
2019-03-12T06:10:29.608Z,97411.73
2019-03-12T06:13:00.137Z,97407.22
2019-03-12T06:15:30.639Z,97405.89
2019-03-12T06:18:01.167Z,97416.08
2019-03-12T06:20:31.682Z,97411.83
2019-03-12T06:23:02.218Z,97412.66
2019-03-12T06:25:32.719Z,97418.06
2019-03-12T06:28:03.233Z,97422.37
2019-03-12T06:30:37.452Z,97421.78
2019-03-12T06:33:16.462Z,97428.86
2019-03-12T06:36:11.052Z,97410.33
2019-03-12T06:39:00.428Z,97411.12
2019-03-12T06:41:44.881Z,97405.17
2019-03-12T06:44:30.569Z,97404.66
2019-03-12T06:47:25.820Z,97405.80
2019-03-12T06:50:01.593Z,97408.41
2019-03-12T06:52:50.973Z,97414.63
2019-03-12T06:55:30.201Z,97408.02
2019-03-12T06:58:23.709Z,97410.69
2019-03-12T07:01:31.252Z,97412.46
2019-03-12T07:04:23.266Z,97404.03
2019-03-12T07:07:18.240Z,97406.36
2019-03-12T07:10:04.067Z,97400.30
2019-03-12T07:12:51.060Z,97406.44
2019-03-12T07:15:28.204Z,97407.73
2019-03-12T07:18:26.701Z,97408.67
2019-03-12T07:21:16.107Z,97405.21
2019-03-12T07:24:08.528Z,97409.14
2019-03-12T07:26:51.421Z,97416.91
2019-03-12T07:29:37.814Z,97423.17
2019-03-12T07:32:29.965Z,97421.17
2019-03-12T07:35:34.822Z,97419.33
2019-03-12T07:38:17.782Z,97418.02
2019-03-12T07:41:24.636Z,97415.26
2019-03-12T07:44:13.374Z,97410.84
2019-03-12T07:47:00.140Z,97401.92
2019-03-12T07:49:55.296Z,97404.06
2019-03-12T07:52:50.553Z,97406.97
2019-03-12T07:55:42.928Z,97404.63
2019-03-12T07:58:36.068Z,97394.23
2019-03-12T08:01:28.414Z,97397.24
2019-03-12T08:04:20.875Z,97398.91
2019-03-12T08:07:25.378Z,97395.86
2019-03-12T08:10:13.594Z,97393.26
2019-03-12T08:13:03.192Z,97389.28
2019-03-12T08:15:46.197Z,97385.33
2019-03-12T08:18:35.470Z,97378.93
2019-03-12T08:21:25.561Z,97382.64
2019-03-12T08:24:14.018Z,97374.33
2019-03-12T08:27:00.232Z,97373.13
2019-03-12T08:29:36.778Z,97365.45
2019-03-12T08:32:25.302Z,97363.23
2019-03-12T08:35:13.533Z,97365.53
2019-03-12T08:38:12.000Z,97363.27
2019-03-12T08:41:00.328Z,97358.00
2019-03-12T08:43:41.694Z,97351.26
2019-03-12T08:46:49.449Z,97351.71
2019-03-12T08:49:45.146Z,97352.94
2019-03-12T08:52:37.263Z,97342.01
2019-03-12T08:55:35.312Z,97337.20
2019-03-12T08:58:23.654Z,97340.16
2019-03-12T09:01:13.044Z,97334.98
2019-03-12T09:03:55.498Z,97340.91
2019-03-12T09:06:44.897Z,97332.36
2019-03-12T09:09:37.291Z,97326.45
2019-03-12T09:12:28.866Z,97319.41
2019-03-12T09:15:24.106Z,97325.00
2019-03-12T09:18:22.809Z,97317.25
2019-03-12T09:21:15.205Z,97311.11
2019-03-12T09:24:10.441Z,97312.45
2019-03-12T09:26:55.587Z,97308.77
2019-03-12T09:29:40.953Z,97308.14
2019-03-12T09:32:21.293Z,97299.14
2019-03-12T09:35:11.699Z,97296.91
2019-03-12T09:38:03.876Z,97294.95
2019-03-12T09:40:52.151Z,97288.73
2019-03-12T09:43:36.846Z,97290.75
2019-03-12T09:46:20.250Z,97283.42
2019-03-12T09:48:56.937Z,97279.91
2019-03-12T09:51:32.584Z,97274.09
2019-03-12T09:54:13.641Z,97278.47
2019-03-12T09:56:51.482Z,97274.05
2019-03-12T09:59:43.766Z,97267.72
2019-03-12T10:02:45.564Z,97263.69
2019-03-12T10:05:41.792Z,97265.57
2019-03-12T10:08:24.082Z,97256.66
2019-03-12T10:11:28.615Z,97252.32
2019-03-12T10:14:29.240Z,97246.31
2019-03-12T10:17:21.683Z,97230.38
2019-03-12T10:20:06.450Z,97227.52
2019-03-12T10:23:04.753Z,97228.08
2019-03-12T10:25:53.154Z,97231.63
2019-03-12T10:28:57.933Z,97222.84
2019-03-12T10:31:39.099Z,97218.84
2019-03-12T10:34:31.525Z,97211.87
2019-03-12T10:37:33.389Z,97213.48
2019-03-12T10:40:15.900Z,97224.36
2019-03-12T10:43:22.858Z,97203.09
2019-03-12T10:46:15.364Z,97202.23
2019-03-12T10:48:45.941Z,97199.47
2019-03-12T10:51:16.902Z,97191.94
2019-03-12T10:53:47.444Z,97179.60
2019-03-12T10:56:17.984Z,97178.44
2019-03-12T10:58:48.522Z,97175.58
2019-03-12T11:01:19.049Z,97174.97
2019-03-12T11:03:49.598Z,97171.95
2019-03-12T11:06:20.128Z,97172.30
2019-03-12T11:08:50.657Z,97158.92
2019-03-12T11:11:21.208Z,97152.25
2019-03-12T11:13:51.783Z,97146.56
2019-03-12T11:16:22.316Z,97138.28
2019-03-12T11:18:52.836Z,97129.34
2019-03-12T11:21:23.480Z,97123.50
2019-03-12T11:23:53.996Z,97121.82
2019-03-12T11:26:26.007Z,97113.56
2019-03-12T11:28:56.523Z,97112.52
2019-03-12T11:31:27.084Z,97104.77
2019-03-12T11:33:57.600Z,97093.58
2019-03-12T11:36:28.159Z,97092.58
2019-03-12T11:38:58.691Z,97104.82
2019-03-12T11:41:29.442Z,97084.14
2019-03-12T11:43:59.964Z,97077.86
2019-03-12T11:46:41.720Z,97068.31
2019-03-12T11:49:02.904Z,97065.81
2019-03-12T11:51:33.515Z,97057.28
2019-03-12T11:54:04.164Z,97048.52
2019-03-12T11:56:34.738Z,97042.14
2019-03-12T11:59:05.393Z,97034.57
2019-03-12T12:01:35.906Z,97018.42
2019-03-12T12:04:06.581Z,97022.68
2019-03-12T12:06:42.393Z,97020.77
2019-03-12T12:09:10.384Z,97010.95
2019-03-12T12:11:40.963Z,97001.96
2019-03-12T12:14:11.502Z,96996.36
2019-03-12T12:16:42.040Z,96993.11
2019-03-12T12:19:12.588Z,96989.59
2019-03-12T12:21:43.113Z,96980.17
2019-03-12T12:24:13.622Z,96975.11
2019-03-12T12:26:44.172Z,96971.37
2019-03-12T12:29:14.683Z,96964.19
2019-03-12T12:31:47.506Z,96965.01
2019-03-12T12:34:17.554Z,96955.38
2019-03-12T12:36:48.162Z,96949.02
2019-03-12T12:39:18.680Z,96945.44
2019-03-12T12:41:49.201Z,96930.88
2019-03-12T12:44:19.752Z,96923.44
2019-03-12T12:46:50.280Z,96917.72
2019-03-12T12:49:20.836Z,96906.56
2019-03-12T12:51:51.348Z,96894.45
2019-03-12T12:54:21.902Z,96889.28
2019-03-12T12:56:52.403Z,96886.31
2019-03-12T12:59:22.953Z,96883.97
2019-03-12T13:01:53.475Z,96879.11
2019-03-12T13:04:24.019Z,96873.86
2019-03-12T13:06:54.535Z,96872.09
2019-03-12T13:09:25.079Z,96872.55
2019-03-12T13:11:55.588Z,96862.73
2019-03-12T13:14:26.131Z,96857.52
2019-03-12T13:16:56.648Z,96850.63
2019-03-12T13:19:27.223Z,96856.86
2019-03-12T13:21:57.788Z,96858.20
2019-03-12T13:24:28.301Z,96854.26
2019-03-12T13:26:58.888Z,96853.16
2019-03-12T13:29:29.399Z,96838.23
2019-03-12T13:32:12.615Z,96828.05
2019-03-12T13:34:32.199Z,96819.03
2019-03-12T13:37:02.770Z,96821.70
2019-03-12T13:39:33.453Z,96818.28
2019-03-12T13:42:03.982Z,96809.59
2019-03-12T13:44:34.517Z,96807.34
2019-03-12T13:47:05.070Z,96794.38
2019-03-12T13:49:35.593Z,96790.69
2019-03-12T13:52:06.126Z,96790.69
2019-03-12T13:54:36.637Z,96775.44
2019-03-12T13:57:07.167Z,96770.84
2019-03-12T13:59:37.687Z,96771.46
2019-03-12T14:02:08.199Z,96759.31
2019-03-12T14:04:38.729Z,96743.50
2019-03-12T14:07:09.245Z,96744.01
2019-03-12T14:09:39.782Z,96742.45
2019-03-12T14:12:10.300Z,96735.39
2019-03-12T14:14:40.841Z,96733.88
2019-03-12T14:17:11.348Z,96725.14
2019-03-12T14:19:41.876Z,96726.98
2019-03-12T14:22:12.389Z,96733.44
2019-03-12T14:24:42.920Z,96712.50
2019-03-12T14:27:13.420Z,96713.27
2019-03-12T14:29:43.969Z,96708.41
2019-03-12T14:32:14.478Z,96704.08
2019-03-12T14:34:45.012Z,96699.47
2019-03-12T14:37:15.542Z,96697.55
2019-03-12T14:39:46.039Z,96696.95
2019-03-12T14:42:16.569Z,96691.34
2019-03-12T14:44:47.152Z,96685.45
2019-03-12T14:47:17.814Z,96672.28
2019-03-12T14:49:48.359Z,96676.33
2019-03-12T14:52:34.298Z,96666.80
2019-03-12T14:55:05.349Z,96658.27
2019-03-12T14:57:35.877Z,96646.36
2019-03-12T15:00:14.699Z,96644.82
2019-03-12T15:02:45.264Z,96641.16
2019-03-12T15:05:15.784Z,96625.77
2019-03-12T15:07:46.350Z,96627.49
2019-03-12T15:10:17.494Z,96610.59
2019-03-12T15:12:48.098Z,96605.48
2019-03-12T15:15:18.595Z,96596.67
2019-03-12T15:17:49.189Z,96604.99
2019-03-12T15:20:19.750Z,96584.34
2019-03-12T15:22:50.268Z,96587.13
2019-03-12T15:25:20.785Z,96577.48
2019-03-12T15:27:51.773Z,96579.27
2019-03-12T15:30:22.305Z,96576.19
2019-03-12T15:32:52.849Z,96568.42
2019-03-12T15:35:23.435Z,96561.31
2019-03-12T15:37:54.039Z,96549.66
2019-03-12T15:40:24.549Z,96548.66
2019-03-12T15:42:55.735Z,96540.86
2019-03-12T15:45:26.325Z,96533.66
2019-03-12T15:47:56.873Z,96527.95
2019-03-12T15:50:27.447Z,96526.77
2019-03-12T15:52:57.954Z,96510.83
2019-03-12T15:55:28.751Z,96511.05
2019-03-12T15:57:59.280Z,96506.51
2019-03-12T16:00:29.831Z,96506.88
2019-03-12T16:03:00.360Z,96497.91
2019-03-12T16:05:30.903Z,96500.00
2019-03-12T16:08:01.437Z,96490.53
2019-03-12T16:10:32.001Z,96483.84
2019-03-12T16:13:02.561Z,96478.01
2019-03-12T16:15:37.425Z,96466.44
2019-03-12T16:18:06.443Z,96459.19
2019-03-12T16:20:36.951Z,96451.48
2019-03-12T16:23:07.586Z,96444.73
2019-03-12T16:25:38.216Z,96440.80
2019-03-12T16:28:08.757Z,96434.03
2019-03-12T16:30:39.295Z,96434.50
2019-03-12T16:33:09.824Z,96427.92
2019-03-12T16:35:40.459Z,96426.11
2019-03-12T16:38:11.068Z,96410.69
2019-03-12T16:40:41.614Z,96414.22
2019-03-12T16:43:12.133Z,96409.73
2019-03-12T16:45:42.656Z,96404.98
2019-03-12T16:48:13.159Z,96396.94
2019-03-12T16:50:43.711Z,96389.83
2019-03-12T16:53:14.249Z,96382.54
2019-03-12T16:55:44.769Z,96380.31
2019-03-12T16:58:15.324Z,96381.09
2019-03-12T17:00:45.861Z,96373.44
2019-03-12T17:03:16.390Z,96369.37
2019-03-12T17:05:46.932Z,96366.33
2019-03-12T17:08:17.486Z,96355.33
2019-03-12T17:10:58.224Z,96352.07
2019-03-12T17:13:20.269Z,96351.13
2019-03-12T17:15:54.590Z,96345.28
2019-03-12T17:18:23.070Z,96341.71
2019-03-12T17:20:53.611Z,96338.73
2019-03-12T17:23:24.160Z,96326.82
2019-03-12T17:25:54.718Z,96317.63
2019-03-12T17:28:25.219Z,96305.88
2019-03-12T17:30:55.745Z,96300.72
2019-03-12T17:33:26.276Z,96302.61
2019-03-12T17:35:58.213Z,96308.41
2019-03-12T17:38:41.540Z,96308.03
2019-03-12T17:41:01.011Z,96305.86
2019-03-12T17:43:31.543Z,96300.55
2019-03-12T17:46:02.104Z,96303.08
2019-03-12T17:48:32.594Z,96298.51
2019-03-12T17:51:03.245Z,96289.59
2019-03-12T17:53:33.813Z,96284.71
2019-03-12T17:56:04.320Z,96283.80
2019-03-12T17:58:34.853Z,96277.24
2019-03-12T18:01:05.352Z,96278.31
2019-03-12T18:03:35.916Z,96268.50
2019-03-12T18:06:06.471Z,96264.26
2019-03-12T18:08:36.972Z,96258.22
2019-03-12T18:11:07.526Z,96253.46
2019-03-12T18:13:38.034Z,96266.99
2019-03-12T18:16:08.516Z,96258.57
2019-03-12T18:18:39.038Z,96252.88
2019-03-12T18:21:09.564Z,96247.39
2019-03-12T18:23:40.094Z,96238.59
2019-03-12T18:26:12.880Z,96231.23
2019-03-12T18:28:43.407Z,96238.66
2019-03-12T18:31:13.936Z,96224.64
2019-03-12T18:33:44.426Z,96230.29
2019-03-12T18:36:14.995Z,96225.12
2019-03-12T18:38:45.512Z,96217.77
2019-03-12T18:41:16.034Z,96212.03
2019-03-12T18:43:46.561Z,96210.16
2019-03-12T18:46:17.080Z,96213.13
2019-03-12T18:48:47.713Z,96209.09
2019-03-12T18:51:18.210Z,96204.41
2019-03-12T18:53:48.709Z,96201.16
2019-03-12T18:56:19.324Z,96195.61
2019-03-12T18:58:49.828Z,96190.05
2019-03-12T19:01:20.370Z,96179.91
2019-03-12T19:03:50.897Z,96179.09
2019-03-12T19:06:21.425Z,96165.84
2019-03-12T19:08:51.964Z,96159.93
2019-03-12T19:11:22.576Z,96154.70
2019-03-12T19:13:53.086Z,96149.75
2019-03-12T19:16:23.617Z,96151.87
2019-03-12T19:18:54.145Z,96145.09
2019-03-12T19:21:24.631Z,96128.08
2019-03-12T19:23:55.141Z,96126.09
2019-03-12T19:26:25.829Z,96121.11
2019-03-12T19:28:56.321Z,96110.78
2019-03-12T19:31:48.562Z,96109.16
2019-03-12T19:34:24.874Z,96103.22
2019-03-12T19:36:55.395Z,96095.62
2019-03-12T19:39:25.922Z,96090.45
2019-03-12T19:41:56.411Z,96077.48
2019-03-12T19:44:26.949Z,96080.52
2019-03-12T19:46:57.453Z,96081.89
2019-03-12T19:49:27.981Z,96079.23
2019-03-12T19:51:58.519Z,96070.57
2019-03-12T19:54:29.041Z,96060.98
2019-03-12T19:56:59.655Z,96059.86
2019-03-12T19:59:30.166Z,96063.03
2019-03-12T20:02:15.282Z,96046.70
2019-03-12T20:04:46.827Z,96038.16
2019-03-12T20:07:08.312Z,96038.53
2019-03-12T20:10:07.061Z,96038.70
2019-03-12T20:13:36.357Z,96039.69
2019-03-12T20:17:11.333Z,96039.41
2019-03-12T20:20:51.440Z,96028.14
2019-03-12T20:24:42.488Z,96016.24
2019-03-12T20:28:30.277Z,96005.19
2019-03-12T20:31:57.673Z,95988.64
2019-03-12T20:35:54.232Z,95976.89
2019-03-12T20:39:29.447Z,95976.55
2019-03-12T20:43:39.517Z,95978.32
2019-03-12T20:47:05.867Z,95963.81
2019-03-12T20:50:32.379Z,95958.25
2019-03-12T20:53:59.961Z,95952.27
2019-03-12T20:57:53.276Z,95936.05
2019-03-12T21:01:31.160Z,95928.22
2019-03-12T21:04:48.370Z,95908.67
2019-03-12T21:08:26.422Z,95918.34
2019-03-12T21:12:02.032Z,95918.11
2019-03-12T21:15:12.924Z,95914.79
2019-03-12T21:18:29.688Z,95913.30
2019-03-12T21:22:10.142Z,95909.53
2019-03-12T21:25:34.535Z,95905.39
2019-03-12T21:29:00.604Z,95903.72
2019-03-12T21:31:31.017Z,95892.95
2019-03-12T21:34:01.362Z,95896.03
2019-03-12T21:36:31.915Z,95894.91
2019-03-12T21:39:02.279Z,95884.73
2019-03-12T21:41:32.659Z,95879.83
2019-03-12T21:44:03.076Z,95870.38
2019-03-12T21:46:33.502Z,95859.86
2019-03-12T21:49:03.954Z,95859.77
2019-03-12T21:51:34.284Z,95864.09
2019-03-12T21:54:04.713Z,95850.63
2019-03-12T21:56:35.131Z,95849.27
2019-03-12T21:59:05.597Z,95865.81
2019-03-12T22:01:35.981Z,95843.06
2019-03-12T22:04:06.434Z,95829.59
2019-03-12T22:06:36.853Z,95818.34
2019-03-12T22:09:07.834Z,95821.84
2019-03-12T22:11:38.262Z,95808.19
2019-03-12T22:14:08.632Z,95813.02
2019-03-12T22:16:38.962Z,95815.63
2019-03-12T22:19:09.268Z,95803.84
2019-03-12T22:21:49.631Z,95834.72
2019-03-12T22:24:22.035Z,95817.25
2019-03-12T22:26:52.441Z,95812.34
2019-03-12T22:29:22.949Z,95827.70
2019-03-12T22:31:53.438Z,95808.25
2019-03-12T22:34:23.897Z,95792.34
2019-03-12T22:36:54.316Z,95788.15
2019-03-12T22:39:24.675Z,95764.22
2019-03-12T22:41:55.012Z,95741.22
2019-03-12T22:44:25.353Z,95754.64
2019-03-12T22:46:55.731Z,95726.47
2019-03-12T22:49:26.188Z,95723.05
2019-03-12T22:51:56.594Z,95732.39
2019-03-12T22:54:27.049Z,95749.87
2019-03-12T22:56:57.532Z,95734.42
2019-03-12T22:59:28.018Z,95715.23
2019-03-12T23:01:58.480Z,95711.63
2019-03-12T23:04:28.799Z,95711.31
2019-03-12T23:06:59.209Z,95709.34
2019-03-12T23:09:29.658Z,95712.23
2019-03-12T23:12:00.421Z,95698.45
2019-03-12T23:14:30.970Z,95716.25
2019-03-12T23:17:01.303Z,95697.19
2019-03-12T23:19:31.864Z,95687.61
2019-03-12T23:22:02.311Z,95689.45
2019-03-12T23:24:35.819Z,95686.27
2019-03-12T23:27:06.336Z,95671.40
2019-03-12T23:29:36.765Z,95666.17
2019-03-12T23:32:07.404Z,95661.66
2019-03-12T23:34:37.801Z,95658.73
2019-03-12T23:37:08.260Z,95661.03
2019-03-12T23:39:38.623Z,95645.28
2019-03-12T23:42:09.103Z,95646.58
2019-03-12T23:44:39.489Z,95645.09
2019-03-12T23:47:09.865Z,95649.17
2019-03-12T23:49:40.376Z,95641.64
2019-03-12T23:52:10.923Z,95648.17
2019-03-12T23:54:41.217Z,95643.23
2019-03-12T23:57:11.668Z,95644.91
2019-03-12T23:59:42.075Z,95642.52
